Westfield, NC (27053)

03:14 EDT le 18 avril 2015 (GMT -0400)
Hanging Rock State Park Visitor Center | | Change Station
CLOSE
Current Station
Stations météorologiques personnelles
Location: Danbury, NC
Altitude: 1683 ft
Stations météo à proximité

Alt. 1683 ft 36.40 °N, 80.27 °W | Updated 6 minutes ago

Partiellement nuageux
Partiellement nuageux
60.8 ° F
Paraît 60.8 ° F
N
0.0
Vent Variable Vent de ESE

Aujourd'hui
Haut(e) -- | Bas -- ° F
--% Risque de précip.
Hier
Haut(e) -- | Bas -- ° F
Precip. -- pouce
6:44 AM 7:57 PM
Lune descendante, 0% visible
Pression 30.01 pouce
Visibilité 2.0 Miles terrestres
Nuages Nuageux 9000 ft
Point de rosée 60 ° F
Humidité 97%
Précipitations 0.00 pouce
Profondeur de la couche neigeuse Non disponible.
UV 0 sur 12
Pollen 10.00 sur 12
Qualité de l'air Non disponible.
Flu Activity Sporadic
METAR KMTV 180655Z AUTO 00000KT 2SM BR BKN090 15/15 A3001 RMK AO2 T01480148

More Conditions Fewer Conditions

Pression 30.01 pouce
Visibilité 2.0 Miles terrestres
Nuages Nuageux 9000 ft
Point de rosée 60 ° F
Humidité 97%
Précipitations 0.00 pouce
Profondeur de la couche neigeuse Non disponible.
UV 0 sur 12
Pollen 10.00 sur 12
Qualité de l'air Non disponible.
Flu Activity Sporadic
METAR KMTV 180655Z AUTO 00000KT 2SM BR BKN090 15/15 A3001 RMK AO2 T01480148

More Conditions Fewer Conditions

10-Day Weather Forecast

Almanac

Astronomie

Apr. 18, 2015 Lever Coucher
Temps réel
Crépuscule civil
Crépuscule nautique
Crépuscule astronomique
Lune
Durée de lumière visible
Longueur du jour
Tomorrow will be .
, % of the Moon is Illuminated

Extrêmes aujourd'hui

State Highs State Lows

Community

WunderPhotos

Upload Photos

1,814,341 Photos téléchargées !

WunderBlogs® & News

Nearby

Qualité de l'air

  Qualité de l'air Indice de la qualité de l'air Polluant
Not available.

Épaisseur de neige

Station Depth Altitude

Activité sismique

Ville Distance Mag. Time & Date
Minimum magnitude displayed is 2.5.

Températures des eaux côtières

Lieu Température

Stations

Stations météo à proximité

Emplacement de la station Température Refroidissement éolien Point de rosée Humidité Vent Precip. Alt. Mise à jour Type